Time;durP1;ratioP1;P1;durP2;ratioP2;P2;SDS_P1;SDS_P2;PMS_P1;PMS_P2;Temp;Humidity;BMP_temperature;BMP_pressure;BME280_temperature;BME280_humidity;BME280_pressure;Samples;Min_cycle;Max_cycle;Signal;HPM_P1;HPM_P2
2022/10/26 00:02:15;;;;;;;17.87;11.37;;;11.10;1.00;;;;;;5074135;28;20645;-76
2022/10/26 00:04:41;;;;;;;13.57;9.77;;;11.10;1.00;;;;;;5075278;28;20208;-76
2022/10/26 00:07:06;;;;;;;14.33;10.20;;;11.10;1.00;;;;;;5075367;28;20194;-76
2022/10/26 00:09:32;;;;;;;17.37;10.00;;;11.20;1.00;;;;;;5074652;28;20540;-75
2022/10/26 00:11:58;;;;;;;11.67;10.30;;;11.20;1.00;;;;;;5066820;28;20171;-75
2022/10/26 00:14:24;;;;;;;17.30;11.07;;;11.20;1.00;;;;;;5055137;28;20174;-75
2022/10/26 00:16:49;;;;;;;13.83;9.73;;;11.20;1.00;;;;;;5073880;28;20202;-76
2022/10/26 00:19:15;;;;;;;14.17;10.00;;;11.20;1.00;;;;;;5073861;28;20539;-76
2022/10/26 00:21:40;;;;;;;15.20;12.20;;;11.20;1.00;;;;;;5075402;28;20543;-76
2022/10/26 00:24:06;;;;;;;25.27;10.83;;;11.30;1.00;;;;;;5075029;28;20163;-76
2022/10/26 00:26:32;;;;;;;21.07;11.03;;;11.30;1.00;;;;;;5074140;28;20660;-74
2022/10/26 00:28:57;;;;;;;15.20;10.70;;;11.30;1.00;;;;;;5074403;28;20166;-74
2022/10/26 00:31:23;;;;;;;15.97;10.00;;;11.30;1.00;;;;;;5075294;28;20166;-75
2022/10/26 00:33:54;;;;;;;19.33;10.20;;;11.30;1.00;;;;;;5090529;28;20170;-74
2022/10/26 00:36:20;;;;;;;14.80;10.10;;;11.30;1.00;;;;;;5082689;28;20419;-73
2022/10/26 00:38:53;;;;;;;13.23;10.80;;;11.40;1.00;;;;;;5054880;28;20922;-74
2022/10/26 00:41:25;;;;;;;17.70;9.67;;;11.40;1.00;;;;;;5063039;28;20439;-74
2022/10/26 00:43:51;;;;;;;20.70;11.00;;;11.40;1.00;;;;;;5057648;28;20434;-73
2022/10/26 00:46:26;;;;;;;20.13;10.97;;;11.40;1.00;;;;;;5062097;28;20476;-74
2022/10/26 00:48:55;;;;;;;14.40;10.30;;;11.30;1.00;;;;;;5075385;28;20864;-76
2022/10/26 00:51:36;;;;;;;18.13;11.50;;;11.30;1.00;;;;;;5075105;28;20493;-74
2022/10/26 00:54:05;;;;;;;17.93;10.90;;;11.30;1.00;;;;;;5072841;28;20790;-74
2022/10/26 00:56:33;;;;;;;13.57;8.93;;;11.20;1.00;;;;;;5071178;28;20517;-74
2022/10/26 00:59:03;;;;;;;13.70;10.43;;;11.20;1.00;;;;;;5073689;28;20478;-74
2022/10/26 01:01:30;;;;;;;13.97;9.60;;;11.10;1.00;;;;;;5074532;28;20406;-77
2022/10/26 01:03:57;;;;;;;11.87;9.40;;;11.10;1.00;;;;;;5073995;28;20418;-76
2022/10/26 01:06:23;;;;;;;16.77;11.90;;;11.00;1.00;;;;;;5073364;28;20407;-74
2022/10/26 01:08:49;;;;;;;15.53;10.40;;;11.00;1.00;;;;;;5073955;28;20372;-74
2022/10/26 01:11:15;;;;;;;15.77;10.53;;;10.90;1.00;;;;;;5073188;28;20166;-80
2022/10/26 01:13:44;;;;;;;14.47;10.43;;;10.90;1.00;;;;;;5073211;28;20517;-76
2022/10/26 01:16:19;;;;;;;11.97;9.20;;;10.90;1.00;;;;;;5072995;28;20470;-75
2022/10/26 01:19:22;;;;;;;14.70;9.67;;;10.90;1.00;;;;;;5074165;28;20396;-76
2022/10/26 01:22:08;;;;;;;30.63;11.97;;;10.90;1.00;;;;;;5074227;28;20441;-77
2022/10/26 01:24:59;;;;;;;16.00;10.27;;;10.80;1.00;;;;;;5072932;28;20420;-76
2022/10/26 01:27:54;;;;;;;18.73;10.73;;;10.80;1.00;;;;;;5073156;28;20441;-75
2022/10/26 01:30:30;;;;;;;13.17;9.93;;;10.80;1.00;;;;;;5069055;28;20489;-76
2022/10/26 01:33:30;;;;;;;13.20;9.90;;;10.80;1.00;;;;;;5069133;28;20737;-76
2022/10/26 01:36:14;;;;;;;12.90;10.90;;;10.70;1.00;;;;;;5058716;28;20472;-77
2022/10/26 01:38:55;;;;;;;13.67;9.50;;;10.70;1.00;;;;;;5074159;28;20398;-76
2022/10/26 01:41:36;;;;;;;22.83;11.23;;;10.70;1.00;;;;;;5073954;28;20446;-76
2022/10/26 01:44:06;;;;;;;16.87;10.33;;;10.60;1.00;;;;;;5073147;28;20408;-77
2022/10/26 01:46:44;;;;;;;16.33;10.80;;;10.60;1.00;;;;;;5071400;28;20527;-77
2022/10/26 01:49:13;;;;;;;29.40;10.57;;;10.60;1.00;;;;;;5073078;28;20393;-76
2022/10/26 01:51:42;;;;;;;16.73;10.10;;;10.60;1.00;;;;;;5069587;28;20417;-75
2022/10/26 01:54:08;;;;;;;13.20;9.80;;;10.60;1.00;;;;;;5062581;28;20398;-77
2022/10/26 01:56:43;;;;;;;16.57;9.80;;;10.60;1.00;;;;;;5073451;28;20403;-76
2022/10/26 01:59:22;;;;;;;14.00;10.20;;;10.60;1.00;;;;;;5072923;28;20473;-76
2022/10/26 02:02:17;;;;;;;16.23;10.80;;;10.50;1.00;;;;;;5073610;28;20378;-75
2022/10/26 02:04:54;;;;;;;16.10;10.87;;;10.50;1.00;;;;;;5050272;28;20392;-76
2022/10/26 02:07:43;;;;;;;18.47;11.23;;;10.50;1.00;;;;;;5067133;28;20966;-76
2022/10/26 02:10:45;;;;;;;17.67;10.80;;;10.50;1.00;;;;;;5073799;28;20403;-77
2022/10/26 02:13:41;;;;;;;18.97;11.40;;;10.50;1.00;;;;;;5073397;28;20426;-76
2022/10/26 02:16:14;;;;;;;14.40;10.50;;;10.50;1.00;;;;;;5073122;28;20431;-77
2022/10/26 02:19:03;;;;;;;17.10;11.47;;;10.40;1.00;;;;;;5072668;28;20498;-75
2022/10/26 02:21:38;;;;;;;23.80;11.13;;;10.40;1.00;;;;;;5064973;28;20414;-75
2022/10/26 02:24:06;;;;;;;19.90;10.87;;;10.40;1.00;;;;;;5071932;28;20420;-76
2022/10/26 02:26:33;;;;;;;19.17;10.27;;;10.40;1.00;;;;;;5073104;28;20801;-77
2022/10/26 02:29:03;;;;;;;16.87;12.73;;;10.40;1.00;;;;;;5073494;28;20375;-76
2022/10/26 02:31:31;;;;;;;13.37;10.10;;;10.30;1.00;;;;;;5077822;28;20479;-77
2022/10/26 02:34:00;;;;;;;20.10;11.17;;;10.30;1.00;;;;;;5072700;28;20406;-77
2022/10/26 02:36:30;;;;;;;21.53;12.23;;;10.30;1.00;;;;;;5064153;28;20806;-77
2022/10/26 02:38:58;;;;;;;18.27;10.50;;;10.40;1.00;;;;;;5053821;28;20435;-76
2022/10/26 02:41:27;;;;;;;15.03;9.90;;;10.30;1.00;;;;;;5068532;28;20499;-75
2022/10/26 02:44:07;;;;;;;17.43;11.50;;;10.30;1.00;;;;;;5072646;28;20756;-76
2022/10/26 02:46:33;;;;;;;16.63;11.43;;;10.30;1.00;;;;;;5066720;28;20477;-76
2022/10/26 02:49:00;;;;;;;17.83;11.50;;;10.30;1.00;;;;;;5068500;28;20411;-76
2022/10/26 02:51:39;;;;;;;15.40;11.60;;;10.30;1.00;;;;;;5072949;28;20383;-76
2022/10/26 02:54:25;;;;;;;18.67;11.57;;;10.30;1.00;;;;;;5086657;28;20766;-76
2022/10/26 02:56:59;;;;;;;18.80;12.07;;;10.30;1.00;;;;;;5071127;28;20424;-76
2022/10/26 02:59:29;;;;;;;18.00;10.60;;;10.30;1.00;;;;;;5072950;28;20448;-76
2022/10/26 03:01:56;;;;;;;22.63;11.47;;;10.20;1.00;;;;;;5072964;28;20426;-77
2022/10/26 03:04:31;;;;;;;18.40;11.70;;;10.20;1.00;;;;;;5072227;28;20406;-75
2022/10/26 03:06:57;;;;;;;23.03;11.53;;;10.20;1.00;;;;;;5071833;28;20447;-76
2022/10/26 03:09:23;;;;;;;15.13;11.03;;;10.10;1.00;;;;;;5071928;28;20887;-76
2022/10/26 03:11:49;;;;;;;19.00;12.07;;;10.10;1.00;;;;;;5073039;28;20404;-77
2022/10/26 03:14:14;;;;;;;20.80;11.50;;;10.10;1.00;;;;;;5084174;28;20391;-75
2022/10/26 03:16:40;;;;;;;17.57;11.43;;;10.10;1.00;;;;;;5052414;28;20608;-76
2022/10/26 03:19:06;;;;;;;19.10;11.27;;;10.10;1.00;;;;;;5070901;28;20181;-76
2022/10/26 03:21:31;;;;;;;19.07;11.07;;;10.10;1.00;;;;;;5069696;28;20182;-76
2022/10/26 03:23:57;;;;;;;22.70;12.33;;;10.00;1.00;;;;;;5060044;28;20195;-75
2022/10/26 03:26:23;;;;;;;17.17;11.73;;;10.00;1.00;;;;;;5066945;28;20190;-75
2022/10/26 03:28:48;;;;;;;17.80;10.80;;;10.00;1.00;;;;;;5070974;28;20257;-77
2022/10/26 03:31:14;;;;;;;17.37;11.50;;;10.10;1.00;;;;;;5072913;28;20248;-76
2022/10/26 03:33:39;;;;;;;18.73;11.40;;;10.10;1.00;;;;;;5067073;28;20179;-77
2022/10/26 03:36:05;;;;;;;15.10;10.63;;;10.10;1.00;;;;;;5052309;28;20543;-77
2022/10/26 03:38:31;;;;;;;16.53;11.37;;;10.10;1.00;;;;;;5065818;28;20187;-76
2022/10/26 03:40:57;;;;;;;17.53;11.00;;;10.10;1.00;;;;;;5071709;28;21014;-76
2022/10/26 03:43:22;;;;;;;17.93;11.43;;;10.10;1.00;;;;;;5074602;28;20206;-77
2022/10/26 03:45:48;;;;;;;16.60;10.40;;;10.10;1.00;;;;;;5075740;28;20526;-76
2022/10/26 03:48:14;;;;;;;15.80;11.70;;;10.10;1.00;;;;;;5076318;28;20174;-76
2022/10/26 03:50:39;;;;;;;15.40;10.93;;;10.10;1.00;;;;;;5060698;28;20187;-76
2022/10/26 03:53:05;;;;;;;21.83;11.70;;;10.00;1.00;;;;;;5069607;28;20252;-77
2022/10/26 03:55:31;;;;;;;19.20;10.97;;;10.10;1.00;;;;;;5074623;28;20194;-76
2022/10/26 03:57:57;;;;;;;16.80;11.40;;;10.00;1.00;;;;;;5068343;28;20414;-75
2022/10/26 04:00:22;;;;;;;19.00;11.17;;;10.00;1.00;;;;;;5075069;28;20166;-75
2022/10/26 04:02:58;;;;;;;17.70;10.80;;;10.00;1.00;;;;;;5072023;28;20202;-77
2022/10/26 04:05:26;;;;;;;15.70;10.60;;;10.00;1.00;;;;;;5075007;28;20205;-76
2022/10/26 04:07:57;;;;;;;25.50;11.67;;;10.00;1.00;;;;;;5075934;28;20962;-76
2022/10/26 04:10:24;;;;;;;15.70;10.10;;;10.00;1.00;;;;;;5074918;28;20407;-79
2022/10/26 04:12:50;;;;;;;17.80;11.50;;;9.90;1.00;;;;;;5086848;28;20460;-77
2022/10/26 04:15:17;;;;;;;20.20;11.90;;;9.90;1.00;;;;;;5073244;28;20470;-77
2022/10/26 04:17:42;;;;;;;14.87;9.50;;;9.90;1.00;;;;;;5075814;28;20422;-75
2022/10/26 04:20:09;;;;;;;20.00;11.90;;;9.90;1.00;;;;;;5075872;28;20910;-76
2022/10/26 04:22:35;;;;;;;15.80;11.17;;;9.90;1.00;;;;;;5075599;28;20190;-76
2022/10/26 04:25:02;;;;;;;15.63;11.67;;;10.00;1.00;;;;;;5073533;28;20785;-77
2022/10/26 04:27:27;;;;;;;26.63;13.60;;;9.90;1.00;;;;;;5073638;28;20412;-76
2022/10/26 04:29:53;;;;;;;15.57;12.60;;;10.00;1.00;;;;;;5075714;28;20383;-75
2022/10/26 04:32:19;;;;;;;18.40;13.30;;;10.00;1.00;;;;;;5073751;28;20205;-77
2022/10/26 04:34:44;;;;;;;24.73;12.93;;;10.00;1.00;;;;;;5074598;28;20182;-75
2022/10/26 04:37:10;;;;;;;20.10;11.37;;;10.10;1.00;;;;;;5075055;28;20271;-77
2022/10/26 04:39:36;;;;;;;21.90;12.03;;;10.10;1.00;;;;;;5073955;28;20173;-77
2022/10/26 04:42:01;;;;;;;19.57;12.57;;;10.20;1.00;;;;;;5059879;28;20251;-76
2022/10/26 04:44:27;;;;;;;22.93;11.90;;;10.20;1.00;;;;;;5074683;28;20170;-76
2022/10/26 04:46:53;;;;;;;18.97;13.77;;;10.20;1.00;;;;;;5075109;28;20585;-76
2022/10/26 04:49:18;;;;;;;20.13;12.43;;;10.20;1.00;;;;;;5075382;28;20184;-77
2022/10/26 04:51:44;;;;;;;17.70;11.50;;;10.10;1.00;;;;;;5074958;28;20257;-80
2022/10/26 04:54:10;;;;;;;18.00;12.20;;;10.10;1.00;;;;;;5072447;28;20212;-79
2022/10/26 04:56:35;;;;;;;22.10;11.80;;;10.10;1.00;;;;;;5057019;28;20727;-81
2022/10/26 04:59:01;;;;;;;20.63;12.83;;;10.20;1.00;;;;;;5056591;28;20182;-81
2022/10/26 05:01:27;;;;;;;15.20;10.90;;;10.10;1.00;;;;;;5055125;28;20178;-76
2022/10/26 05:03:53;;;;;;;16.27;10.90;;;10.10;1.00;;;;;;5073644;28;20202;-76
2022/10/26 05:06:20;;;;;;;16.53;11.70;;;10.10;1.00;;;;;;5063876;28;20199;-76
2022/10/26 05:08:45;;;;;;;19.13;11.00;;;10.10;1.00;;;;;;5090210;28;20760;-77
2022/10/26 05:11:11;;;;;;;21.67;11.60;;;10.10;1.00;;;;;;5066067;28;20414;-76
2022/10/26 05:13:37;;;;;;;15.10;11.03;;;10.00;1.00;;;;;;5053884;28;20187;-82
2022/10/26 05:16:03;;;;;;;16.67;10.60;;;10.00;1.00;;;;;;5061921;28;20213;-75
2022/10/26 05:18:28;;;;;;;22.63;12.40;;;10.00;1.00;;;;;;5061352;28;20179;-76
2022/10/26 05:20:54;;;;;;;16.93;12.20;;;10.00;1.00;;;;;;5055056;28;20912;-75
2022/10/26 05:23:20;;;;;;;16.27;10.50;;;10.00;1.00;;;;;;5068296;28;20264;-77
2022/10/26 05:25:46;;;;;;;17.23;12.47;;;10.00;1.00;;;;;;5067888;28;20190;-77
2022/10/26 05:28:13;;;;;;;15.50;10.67;;;9.90;1.00;;;;;;5054280;28;20757;-76
2022/10/26 05:30:44;;;;;;;18.50;12.27;;;9.90;1.00;;;;;;5054698;28;20409;-76
2022/10/26 05:33:11;;;;;;;28.60;11.40;;;9.90;1.00;;;;;;5070112;28;20476;-76
2022/10/26 05:35:37;;;;;;;19.67;10.87;;;9.90;1.00;;;;;;5062229;28;20491;-77
2022/10/26 05:38:11;;;;;;;17.83;9.80;;;9.90;1.00;;;;;;5054233;28;20415;-76
2022/10/26 05:40:37;;;;;;;13.93;10.57;;;9.90;1.00;;;;;;5054517;28;20739;-76
2022/10/26 05:43:03;;;;;;;19.10;10.90;;;9.90;1.00;;;;;;5054516;28;20503;-76
2022/10/26 05:45:28;;;;;;;17.80;11.33;;;9.80;1.00;;;;;;5066453;28;20205;-77
2022/10/26 05:47:54;;;;;;;16.03;10.60;;;9.80;1.00;;;;;;5070294;28;20179;-77
2022/10/26 05:50:20;;;;;;;19.40;12.47;;;9.80;1.00;;;;;;5074043;28;20401;-76
2022/10/26 05:52:47;;;;;;;17.50;10.37;;;9.80;1.00;;;;;;5067443;28;20230;-76
2022/10/26 05:55:14;;;;;;;16.97;11.20;;;9.80;1.00;;;;;;5053044;28;20173;-75
2022/10/26 05:57:41;;;;;;;17.73;10.77;;;9.80;1.00;;;;;;5063671;28;20420;-76
2022/10/26 06:00:18;;;;;;;15.97;11.30;;;9.70;1.00;;;;;;5069018;28;20443;-77
2022/10/26 06:03:00;;;;;;;18.43;10.43;;;9.70;1.00;;;;;;5053381;28;20465;-77
2022/10/26 06:05:28;;;;;;;16.83;9.80;;;9.80;1.00;;;;;;5051626;28;20424;-76
2022/10/26 06:07:54;;;;;;;15.83;9.80;;;9.70;1.00;;;;;;5052569;28;20467;-78
2022/10/26 06:10:20;;;;;;;13.47;10.83;;;9.70;1.00;;;;;;5063728;28;21000;-75
2022/10/26 06:12:46;;;;;;;17.30;11.63;;;9.70;1.00;;;;;;5056474;28;20528;-75
2022/10/26 06:15:17;;;;;;;14.40;10.07;;;9.60;1.00;;;;;;5052426;28;20499;-76
2022/10/26 06:17:43;;;;;;;13.93;10.73;;;9.60;1.00;;;;;;5063675;28;20784;-76
2022/10/26 06:20:28;;;;;;;14.63;11.03;;;9.60;1.00;;;;;;5058166;28;20441;-76
2022/10/26 06:23:06;;;;;;;14.80;10.60;;;9.60;1.00;;;;;;5073266;28;20190;-75
2022/10/26 06:26:00;;;;;;;14.43;10.10;;;9.60;1.00;;;;;;5064193;28;20452;-76
2022/10/26 06:28:49;;;;;;;17.30;10.00;;;9.60;1.00;;;;;;5052913;28;20411;-76
2022/10/26 06:31:15;;;;;;;14.27;9.63;;;9.50;1.00;;;;;;5067943;28;20505;-75
2022/10/26 06:33:41;;;;;;;13.60;9.60;;;9.60;1.00;;;;;;5071364;28;20486;-77
2022/10/26 06:36:24;;;;;;;13.80;10.03;;;9.60;1.00;;;;;;5063512;28;20209;-77
2022/10/26 06:39:00;;;;;;;16.63;10.63;;;9.60;1.00;;;;;;5052383;28;20692;-75
2022/10/26 06:41:26;;;;;;;16.33;12.20;;;9.70;1.00;;;;;;5053023;28;20433;-76
2022/10/26 06:43:52;;;;;;;18.13;11.40;;;9.70;1.00;;;;;;5051837;28;20488;-76
2022/10/26 06:46:26;;;;;;;14.70;9.70;;;9.70;1.00;;;;;;5052631;28;20432;-77
2022/10/26 06:49:12;;;;;;;16.43;10.97;;;9.70;1.00;;;;;;5052146;28;20780;-75
2022/10/26 06:51:48;;;;;;;13.30;10.47;;;9.70;1.00;;;;;;5052696;28;20411;-75
2022/10/26 06:54:50;;;;;;;16.63;11.17;;;9.70;1.00;;;;;;5051961;28;20436;-77
2022/10/26 06:57:18;;;;;;;18.00;12.00;;;9.70;1.00;;;;;;5061666;28;20925;-77
2022/10/26 06:59:54;;;;;;;16.87;11.20;;;9.70;1.00;;;;;;5052731;28;20432;-76
2022/10/26 07:02:20;;;;;;;15.33;11.17;;;9.70;1.00;;;;;;5051761;28;20431;-77
2022/10/26 07:04:46;;;;;;;15.57;11.07;;;9.80;1.00;;;;;;5051298;28;20434;-76
2022/10/26 07:07:18;;;;;;;18.53;11.80;;;9.80;1.00;;;;;;5052544;28;20476;-75
2022/10/26 07:09:44;;;;;;;14.50;11.67;;;9.90;1.00;;;;;;5053273;28;20414;-76
2022/10/26 07:12:10;;;;;;;16.70;11.00;;;10.00;1.00;;;;;;5056598;28;20789;-75
2022/10/26 07:14:35;;;;;;;24.87;12.67;;;10.00;1.00;;;;;;5067057;28;20182;-76
2022/10/26 07:17:01;;;;;;;15.10;11.27;;;10.00;1.00;;;;;;5057461;28;20205;-76
2022/10/26 07:19:27;;;;;;;20.27;12.73;;;10.00;1.00;;;;;;5056467;28;20197;-76
2022/10/26 07:21:58;;;;;;;20.40;11.77;;;10.10;1.00;;;;;;5072001;28;20432;-76
2022/10/26 07:24:24;;;;;;;15.00;10.20;;;10.20;1.00;;;;;;5055128;28;20235;-78
2022/10/26 07:26:50;;;;;;;20.63;11.30;;;10.20;1.00;;;;;;5056139;28;20904;-76
2022/10/26 07:29:16;;;;;;;21.27;11.50;;;10.30;1.00;;;;;;5057320;28;20442;-76
2022/10/26 07:31:42;;;;;;;17.67;11.43;;;10.30;1.00;;;;;;5056229;28;20228;-76
2022/10/26 07:34:08;;;;;;;20.67;13.80;;;10.30;1.00;;;;;;5055836;28;20388;-75
2022/10/26 07:36:38;;;;;;;19.47;12.03;;;10.40;1.00;;;;;;5059032;28;20457;-81
2022/10/26 07:39:04;;;;;;;22.07;12.37;;;10.40;1.00;;;;;;5055965;28;20815;-76
2022/10/26 07:41:30;;;;;;;19.03;12.30;;;10.50;1.00;;;;;;5071187;28;20435;-76
2022/10/26 07:43:56;;;;;;;19.70;12.80;;;10.50;1.00;;;;;;5054997;28;20430;-76
2022/10/26 07:46:22;;;;;;;19.10;13.17;;;10.60;1.00;;;;;;5055911;28;20248;-76
2022/10/26 07:48:47;;;;;;;16.50;11.83;;;10.60;1.00;;;;;;5056032;28;20218;-75
2022/10/26 07:51:13;;;;;;;18.97;13.40;;;10.70;1.00;;;;;;5055967;28;20213;-76
2022/10/26 07:53:39;;;;;;;18.27;11.77;;;10.70;1.00;;;;;;5054841;28;20585;-77
2022/10/26 07:56:05;;;;;;;22.00;12.63;;;10.80;1.00;;;;;;5063971;28;20667;-74
2022/10/26 07:58:31;;;;;;;19.00;11.53;;;10.90;1.00;;;;;;5055887;28;20435;-73
2022/10/26 08:00:57;;;;;;;17.90;12.63;;;11.00;1.00;;;;;;5055785;28;20411;-74
2022/10/26 08:03:22;;;;;;;22.13;13.13;;;11.00;4.20;;;;;;5055429;28;20214;-73
2022/10/26 08:05:54;;;;;;;22.10;11.27;;;11.10;11.00;;;;;;5068957;28;20198;-74
2022/10/26 08:08:20;;;;;;;20.37;12.57;;;11.20;11.70;;;;;;5074406;28;20174;-74
2022/10/26 08:10:47;;;;;;;18.20;11.10;;;11.20;12.50;;;;;;5073622;28;20400;-74
2022/10/26 08:13:13;;;;;;;17.43;12.30;;;11.30;11.80;;;;;;5056028;28;20769;-74
2022/10/26 08:15:39;;;;;;;22.53;11.20;;;11.30;13.60;;;;;;5054471;28;20428;-74
2022/10/26 08:18:05;;;;;;;19.33;11.80;;;11.30;17.70;;;;;;5055142;28;20441;-75
2022/10/26 08:20:31;;;;;;;23.17;12.60;;;11.30;20.20;;;;;;5055382;28;20465;-74
2022/10/26 08:22:57;;;;;;;17.87;12.87;;;11.40;19.80;;;;;;5064021;28;20859;-75
2022/10/26 08:25:23;;;;;;;21.47;12.93;;;11.50;21.40;;;;;;5061478;28;20555;-74
2022/10/26 08:27:49;;;;;;;15.57;11.43;;;11.50;29.60;;;;;;5054108;28;20479;-74
2022/10/26 08:30:15;;;;;;;17.60;11.77;;;11.60;33.50;;;;;;5055336;28;20205;-74
2022/10/26 08:32:41;;;;;;;25.10;13.00;;;11.70;23.50;;;;;;5079637;28;20808;-75
2022/10/26 08:35:08;;;;;;;19.73;12.10;;;11.80;23.50;;;;;;5072321;28;20424;-75
2022/10/26 08:37:34;;;;;;;27.93;11.97;;;11.90;40.70;;;;;;5074156;28;20171;-75
2022/10/26 08:40:00;;;;;;;21.43;11.37;;;12.00;36.50;;;;;;5071073;28;20408;-75
2022/10/26 08:42:49;;;;;;;19.63;11.07;;;12.10;37.30;;;;;;5055409;28;20494;-75
2022/10/26 08:45:31;;;;;;;23.27;11.67;;;12.30;33.40;;;;;;5053035;28;20654;-76
2022/10/26 08:48:08;;;;;;;21.87;12.33;;;12.40;37.90;;;;;;5054950;28;20935;-74
2022/10/26 08:50:41;;;;;;;16.67;11.20;;;12.50;34.10;;;;;;5054839;28;20941;-74
2022/10/26 08:53:37;;;;;;;23.40;13.80;;;12.60;19.90;;;;;;5055302;28;20886;-75
2022/10/26 08:56:14;;;;;;;15.27;10.70;;;12.70;14.40;;;;;;5053313;28;20428;-75
2022/10/26 08:58:48;;;;;;;14.43;10.50;;;12.80;2.50;;;;;;5054801;28;20429;-74
2022/10/26 09:01:14;;;;;;;19.10;9.90;;;13.00;1.00;;;;;;5055158;28;20531;-76
2022/10/26 09:03:40;;;;;;;17.30;11.97;;;13.00;1.00;;;;;;5053413;28;20598;-75
2022/10/26 09:06:14;;;;;;;15.20;10.93;;;13.10;1.00;;;;;;5067938;28;20538;-75
2022/10/26 09:09:09;;;;;;;18.53;11.40;;;13.20;1.00;;;;;;5055418;28;20174;-75
2022/10/26 09:12:06;;;;;;;15.20;10.40;;;13.30;1.00;;;;;;5050071;28;20416;-75
2022/10/26 09:14:50;;;;;;;14.40;9.67;;;13.40;1.00;;;;;;5049931;28;20441;-75
2022/10/26 09:17:37;;;;;;;18.63;10.20;;;13.40;1.00;;;;;;5054251;28;20526;-74
2022/10/26 09:20:40;;;;;;;11.50;9.10;;;13.50;1.00;;;;;;5073349;28;20464;-74
2022/10/26 09:23:28;;;;;;;12.67;8.63;;;13.70;1.00;;;;;;5059873;28;20464;-75
2022/10/26 09:25:59;;;;;;;16.97;8.60;;;13.80;1.00;;;;;;5052650;28;20461;-75
2022/10/26 09:28:27;;;;;;;14.53;8.60;;;13.90;1.00;;;;;;5069508;28;20425;-75
2022/10/26 09:30:57;;;;;;;13.10;9.20;;;14.00;1.00;;;;;;5054103;28;20425;-74
2022/10/26 09:33:24;;;;;;;12.77;8.80;;;14.10;1.00;;;;;;5054304;28;20467;-75
2022/10/26 09:35:52;;;;;;;11.80;9.07;;;14.20;1.00;;;;;;5056731;28;20477;-75
2022/10/26 09:38:52;;;;;;;14.40;8.33;;;14.30;1.00;;;;;;5054333;28;20402;-74
2022/10/26 09:41:24;;;;;;;18.13;10.07;;;14.40;1.00;;;;;;5047427;28;20841;-74
2022/10/26 09:43:57;;;;;;;13.93;8.50;;;14.60;1.00;;;;;;5052619;28;20428;-76
2022/10/26 09:46:33;;;;;;;17.43;9.87;;;14.80;1.00;;;;;;5053438;28;20945;-75
2022/10/26 09:49:05;;;;;;;15.50;9.27;;;14.80;1.00;;;;;;5053810;28;20436;-75
2022/10/26 09:51:38;;;;;;;13.77;8.90;;;14.90;1.00;;;;;;5061577;28;20771;-75
2022/10/26 09:54:18;;;;;;;8.30;7.40;;;15.10;1.00;;;;;;5053107;28;20470;-75
2022/10/26 09:56:48;;;;;;;13.03;8.03;;;15.30;1.00;;;;;;5053184;28;20502;-76
2022/10/26 09:59:17;;;;;;;11.00;7.47;;;15.50;1.00;;;;;;5054050;28;20401;-76
2022/10/26 10:01:42;;;;;;;9.60;6.23;;;15.60;1.00;;;;;;5070820;28;20440;-75
2022/10/26 10:04:21;;;;;;;9.30;6.53;;;15.70;1.00;;;;;;5070800;28;20494;-74
2022/10/26 10:06:54;;;;;;;14.33;7.53;;;15.70;1.00;;;;;;5071563;28;20271;-76
2022/10/26 10:09:23;;;;;;;13.33;7.00;;;15.70;99.90;;;;;;5053104;28;20413;-76
2022/10/26 10:11:54;;;;;;;11.30;7.13;;;15.80;99.90;;;;;;5052555;28;20439;-77
2022/10/26 10:14:21;;;;;;;7.87;6.47;;;15.90;99.90;;;;;;5052147;28;20459;-77
2022/10/26 10:16:57;;;;;;;7.73;6.67;;;16.00;99.90;;;;;;5052234;28;20449;-76
2022/10/26 10:19:28;;;;;;;10.00;5.67;;;16.00;99.90;;;;;;5052611;28;20467;-74
2022/10/26 10:21:57;;;;;;;10.43;7.03;;;16.00;99.90;;;;;;5052172;28;20429;-77
2022/10/26 10:24:29;;;;;;;7.53;5.40;;;16.00;99.90;;;;;;5051356;28;20394;-77
2022/10/26 10:26:57;;;;;;;8.67;4.60;;;16.00;99.90;;;;;;5051520;28;20512;-77
2022/10/26 10:29:50;;;;;;;5.40;4.90;;;16.10;99.90;;;;;;5052363;28;20394;-75
2022/10/26 10:32:19;;;;;;;6.17;4.77;;;16.20;99.90;;;;;;5051673;28;20417;-77
2022/10/26 10:34:46;;;;;;;8.23;5.37;;;16.30;99.90;;;;;;5052173;28;20424;-74
2022/10/26 10:37:37;;;;;;;10.87;4.93;;;16.50;99.90;;;;;;5054430;28;20469;-76
2022/10/26 10:40:18;;;;;;;6.67;5.30;;;16.60;99.90;;;;;;5046876;28;20437;-73
2022/10/26 10:42:46;;;;;;;7.87;5.00;;;16.70;99.90;;;;;;5067788;28;20464;-72
2022/10/26 10:45:27;;;;;;;5.93;4.67;;;16.60;99.90;;;;;;5051036;28;20417;-75
2022/10/26 10:48:11;;;;;;;5.57;4.40;;;16.70;99.90;;;;;;5052546;28;20390;-75
2022/10/26 10:50:49;;;;;;;8.43;4.30;;;16.80;99.90;;;;;;5061869;28;20429;-76
2022/10/26 10:53:29;;;;;;;5.00;4.10;;;17.00;99.90;;;;;;5070433;28;20428;-74
2022/10/26 10:56:23;;;;;;;5.33;4.43;;;17.00;99.90;;;;;;5051052;28;20448;-75
2022/10/26 10:59:26;;;;;;;6.47;4.90;;;17.10;99.90;;;;;;5071156;28;20428;-77
2022/10/26 11:04:58;;;;;;;6.73;4.40;;;16.90;99.90;;;;;;5085436;27;20614;-75
2022/10/26 11:07:25;;;;;;;8.30;4.30;;;17.00;99.90;;;;;;5066605;28;20916;-73
2022/10/26 11:09:53;;;;;;;5.00;4.60;;;17.00;99.90;;;;;;5050340;28;20451;-75
2022/10/26 11:12:29;;;;;;;6.10;4.70;;;17.10;99.90;;;;;;5063670;28;20434;-74
2022/10/26 11:15:05;;;;;;;7.90;4.07;;;17.10;99.90;;;;;;5070240;28;20960;-77
2022/10/26 11:17:44;;;;;;;3.73;3.33;;;17.20;99.90;;;;;;5061341;28;20910;-73
2022/10/26 11:20:19;;;;;;;5.37;4.57;;;17.20;99.90;;;;;;5066710;28;20790;-75
2022/10/26 11:23:04;;;;;;;4.23;3.93;;;17.20;99.90;;;;;;5050141;28;20511;-73
2022/10/26 11:25:35;;;;;;;4.07;3.73;;;17.20;99.90;;;;;;5049059;28;20448;-73
2022/10/26 11:28:13;;;;;;;5.63;3.70;;;17.20;99.90;;;;;;5063908;28;20412;-73
2022/10/26 11:30:50;;;;;;;5.20;4.43;;;17.20;99.90;;;;;;5058145;28;20428;-77
2022/10/26 11:33:30;;;;;;;4.50;3.67;;;17.20;96.60;;;;;;5048094;28;20494;-76
2022/10/26 11:35:57;;;;;;;8.70;4.50;;;17.20;96.90;;;;;;5058787;28;20470;-75
2022/10/26 11:38:41;;;;;;;7.10;4.00;;;17.30;99.40;;;;;;5068003;28;20428;-74
2022/10/26 11:41:25;;;;;;;7.00;3.80;;;17.30;95.80;;;;;;5070131;28;20968;-75
2022/10/26 11:44:09;;;;;;;5.50;3.50;;;17.30;94.70;;;;;;5068958;28;20444;-75
2022/10/26 11:46:55;;;;;;;8.30;3.20;;;17.40;94.60;;;;;;5069148;28;20439;-74
2022/10/26 11:49:32;;;;;;;5.77;3.40;;;17.50;93.50;;;;;;5067431;28;20554;-71
2022/10/26 11:52:21;;;;;;;5.60;3.73;;;17.40;80.80;;;;;;5070341;28;20444;-72
2022/10/26 11:55:00;;;;;;;2.93;2.63;;;17.40;78.90;;;;;;5048613;28;20410;-74
2022/10/26 11:57:28;;;;;;;7.33;3.20;;;17.50;78.80;;;;;;5049672;28;20432;-74
2022/10/26 12:00:04;;;;;;;3.93;2.87;;;17.50;94.40;;;;;;5064734;28;20433;-75
2022/10/26 12:02:34;;;;;;;5.33;3.10;;;17.60;82.90;;;;;;5069425;28;20465;-75
2022/10/26 12:05:15;;;;;;;4.90;2.90;;;17.70;73.10;;;;;;5068243;28;20405;-72
2022/10/26 12:07:47;;;;;;;8.33;3.37;;;17.80;87.20;;;;;;5072435;28;20437;-72
2022/10/26 12:10:35;;;;;;;5.37;2.87;;;17.90;74.30;;;;;;5073699;28;20479;-76
2022/10/26 12:13:28;;;;;;;3.70;3.30;;;18.00;78.50;;;;;;5049359;28;20413;-73
2022/10/26 12:16:18;;;;;;;13.40;4.13;;;18.10;65.20;;;;;;5036348;28;20429;-73
2022/10/26 12:18:52;;;;;;;4.13;2.80;;;18.20;70.80;;;;;;5044053;28;20433;-74
2022/10/26 12:21:19;;;;;;;10.00;3.43;;;18.30;73.90;;;;;;5054920;28;20511;-76
2022/10/26 12:23:56;;;;;;;4.20;3.20;;;18.50;68.90;;;;;;5052075;28;20461;-72
2022/10/26 12:26:22;;;;;;;5.93;3.90;;;18.60;67.40;;;;;;5054208;28;20462;-75
2022/10/26 12:28:48;;;;;;;3.70;3.37;;;18.60;48.90;;;;;;5055859;28;20398;-75
2022/10/26 12:31:36;;;;;;;4.13;2.60;;;18.70;56.90;;;;;;5054499;28;20186;-73
2022/10/26 12:34:14;;;;;;;3.10;2.80;;;18.70;44.90;;;;;;5054872;28;20421;-75
2022/10/26 12:36:48;;;;;;;2.90;2.27;;;18.60;49.20;;;;;;5054574;28;20806;-72
2022/10/26 12:39:35;;;;;;;6.60;2.80;;;18.50;50.30;;;;;;5055614;28;20392;-73
2022/10/26 12:42:04;;;;;;;3.20;2.53;;;18.40;56.80;;;;;;5054526;28;20789;-75
2022/10/26 12:44:36;;;;;;;2.23;2.03;;;18.40;50.90;;;;;;5053073;28;20532;-75
2022/10/26 12:47:04;;;;;;;2.87;2.67;;;18.50;67.50;;;;;;5055355;28;20480;-74
2022/10/26 12:50:17;;;;;;;2.53;2.23;;;18.40;63.20;;;;;;5055364;28;20412;-75
2022/10/26 12:52:56;;;;;;;3.87;2.60;;;18.40;53.60;;;;;;5055386;28;20398;-75
2022/10/26 12:55:21;;;;;;;9.10;2.43;;;18.20;57.50;;;;;;5052260;28;20481;-75
2022/10/26 12:57:47;;;;;;;3.87;2.30;;;18.10;57.80;;;;;;5054045;28;20586;-72
2022/10/26 13:00:16;;;;;;;4.80;3.50;;;18.10;57.00;;;;;;5055523;28;20178;-75
2022/10/26 13:02:49;;;;;;;4.13;2.97;;;18.10;63.80;;;;;;5053442;28;20352;-73
2022/10/26 13:05:35;;;;;;;10.47;3.70;;;18.00;57.30;;;;;;5053211;28;20409;-73
2022/10/26 13:08:08;;;;;;;3.03;2.77;;;18.00;68.30;;;;;;5053893;28;20424;-74
2022/10/26 13:10:35;;;;;;;4.53;3.03;;;17.90;63.50;;;;;;5054460;28;20482;-72